sensor_id;sensor_type;location;lat;lon;timestamp;P1;durP1;ratioP1;P2;durP2;ratioP2
22219;SDS011;11279;48.364;10.904;2024-01-07T00:00:47;22.70;;;14.47;;
22219;SDS011;11279;48.364;10.904;2024-01-07T00:01:48;26.33;;;16.00;;
22219;SDS011;11279;48.364;10.904;2024-01-07T00:02:49;24.83;;;15.93;;
22219;SDS011;11279;48.364;10.904;2024-01-07T00:03:50;25.50;;;14.97;;
22219;SDS011;11279;48.364;10.904;2024-01-07T00:04:51;28.10;;;14.50;;
22219;SDS011;11279;48.364;10.904;2024-01-07T00:05:52;25.73;;;14.67;;
22219;SDS011;11279;48.364;10.904;2024-01-07T00:06:52;26.30;;;16.17;;
22219;SDS011;11279;48.364;10.904;2024-01-07T00:07:52;23.57;;;14.80;;
22219;SDS011;11279;48.364;10.904;2024-01-07T00:08:53;27.40;;;15.53;;
22219;SDS011;11279;48.364;10.904;2024-01-07T00:09:53;27.40;;;16.10;;
22219;SDS011;11279;48.364;10.904;2024-01-07T00:10:54;25.03;;;14.50;;
22219;SDS011;11279;48.364;10.904;2024-01-07T00:11:54;21.70;;;14.63;;
22219;SDS011;11279;48.364;10.904;2024-01-07T00:12:55;27.80;;;15.87;;
22219;SDS011;11279;48.364;10.904;2024-01-07T00:13:55;24.77;;;14.33;;
22219;SDS011;11279;48.364;10.904;2024-01-07T00:14:55;22.30;;;15.13;;
22219;SDS011;11279;48.364;10.904;2024-01-07T00:15:56;26.07;;;14.63;;
22219;SDS011;11279;48.364;10.904;2024-01-07T00:16:56;22.27;;;14.03;;
22219;SDS011;11279;48.364;10.904;2024-01-07T00:17:57;26.60;;;14.80;;
22219;SDS011;11279;48.364;10.904;2024-01-07T00:18:57;23.67;;;14.63;;
22219;SDS011;11279;48.364;10.904;2024-01-07T00:19:58;22.03;;;14.27;;
22219;SDS011;11279;48.364;10.904;2024-01-07T00:20:58;25.40;;;14.93;;
22219;SDS011;11279;48.364;10.904;2024-01-07T00:21:59;22.83;;;13.57;;
22219;SDS011;11279;48.364;10.904;2024-01-07T00:22:59;25.03;;;14.97;;
22219;SDS011;11279;48.364;10.904;2024-01-07T00:24:00;26.67;;;14.60;;
22219;SDS011;11279;48.364;10.904;2024-01-07T00:25:00;24.33;;;13.40;;
22219;SDS011;11279;48.364;10.904;2024-01-07T00:26:01;22.17;;;13.73;;
22219;SDS011;11279;48.364;10.904;2024-01-07T00:27:03;29.38;;;14.52;;
22219;SDS011;11279;48.364;10.904;2024-01-07T00:28:04;27.93;;;15.43;;
22219;SDS011;11279;48.364;10.904;2024-01-07T00:29:05;26.63;;;14.30;;
22219;SDS011;11279;48.364;10.904;2024-01-07T00:30:05;26.83;;;15.93;;
22219;SDS011;11279;48.364;10.904;2024-01-07T00:31:06;24.35;;;14.80;;
22219;SDS011;11279;48.364;10.904;2024-01-07T00:32:09;23.08;;;14.13;;
22219;SDS011;11279;48.364;10.904;2024-01-07T00:33:10;25.30;;;15.73;;
22219;SDS011;11279;48.364;10.904;2024-01-07T00:34:11;25.85;;;13.90;;
22219;SDS011;11279;48.364;10.904;2024-01-07T00:35:11;22.13;;;13.37;;
22219;SDS011;11279;48.364;10.904;2024-01-07T00:36:12;21.60;;;13.40;;
22219;SDS011;11279;48.364;10.904;2024-01-07T00:37:12;22.87;;;13.93;;
22219;SDS011;11279;48.364;10.904;2024-01-07T00:38:13;26.53;;;13.60;;
22219;SDS011;11279;48.364;10.904;2024-01-07T00:39:13;24.40;;;14.53;;
22219;SDS011;11279;48.364;10.904;2024-01-07T00:40:13;22.27;;;14.67;;
22219;SDS011;11279;48.364;10.904;2024-01-07T00:41:14;22.13;;;13.70;;
22219;SDS011;11279;48.364;10.904;2024-01-07T00:42:14;25.03;;;15.60;;
22219;SDS011;11279;48.364;10.904;2024-01-07T00:43:15;23.93;;;14.30;;
22219;SDS011;11279;48.364;10.904;2024-01-07T00:44:15;23.37;;;14.47;;
22219;SDS011;11279;48.364;10.904;2024-01-07T00:45:16;24.77;;;14.67;;
22219;SDS011;11279;48.364;10.904;2024-01-07T00:46:16;24.80;;;15.10;;
22219;SDS011;11279;48.364;10.904;2024-01-07T00:47:16;23.80;;;14.27;;
22219;SDS011;11279;48.364;10.904;2024-01-07T00:48:17;23.87;;;14.77;;
22219;SDS011;11279;48.364;10.904;2024-01-07T00:49:17;22.40;;;14.50;;
22219;SDS011;11279;48.364;10.904;2024-01-07T00:50:18;26.40;;;15.67;;
22219;SDS011;11279;48.364;10.904;2024-01-07T00:51:18;22.63;;;14.23;;
22219;SDS011;11279;48.364;10.904;2024-01-07T00:52:19;26.77;;;15.70;;
22219;SDS011;11279;48.364;10.904;2024-01-07T00:53:19;22.13;;;15.10;;
22219;SDS011;11279;48.364;10.904;2024-01-07T00:54:19;23.67;;;15.23;;
22219;SDS011;11279;48.364;10.904;2024-01-07T00:55:20;24.13;;;15.30;;
22219;SDS011;11279;48.364;10.904;2024-01-07T00:56:25;25.70;;;14.35;;
22219;SDS011;11279;48.364;10.904;2024-01-07T00:57:26;22.48;;;13.77;;
22219;SDS011;11279;48.364;10.904;2024-01-07T00:58:26;22.73;;;14.67;;
22219;SDS011;11279;48.364;10.904;2024-01-07T00:59:28;23.80;;;14.57;;
22219;SDS011;11279;48.364;10.904;2024-01-07T01:00:29;22.48;;;15.60;;
22219;SDS011;11279;48.364;10.904;2024-01-07T01:01:30;23.97;;;15.07;;
22219;SDS011;11279;48.364;10.904;2024-01-07T01:02:31;22.75;;;14.77;;
22219;SDS011;11279;48.364;10.904;2024-01-07T01:03:31;27.37;;;15.83;;
22219;SDS011;11279;48.364;10.904;2024-01-07T01:04:32;23.63;;;15.50;;
22219;SDS011;11279;48.364;10.904;2024-01-07T01:05:32;23.73;;;15.10;;
22219;SDS011;11279;48.364;10.904;2024-01-07T01:06:32;25.73;;;15.37;;
22219;SDS011;11279;48.364;10.904;2024-01-07T01:07:33;26.47;;;16.27;;
22219;SDS011;11279;48.364;10.904;2024-01-07T01:08:33;23.57;;;14.93;;
22219;SDS011;11279;48.364;10.904;2024-01-07T01:09:34;25.67;;;16.33;;
22219;SDS011;11279;48.364;10.904;2024-01-07T01:10:34;23.97;;;15.30;;
22219;SDS011;11279;48.364;10.904;2024-01-07T01:11:35;22.83;;;15.47;;
22219;SDS011;11279;48.364;10.904;2024-01-07T01:12:35;21.90;;;14.53;;
22219;SDS011;11279;48.364;10.904;2024-01-07T01:13:35;26.33;;;15.50;;
22219;SDS011;11279;48.364;10.904;2024-01-07T01:14:36;24.43;;;15.87;;
22219;SDS011;11279;48.364;10.904;2024-01-07T01:15:36;25.40;;;16.73;;
22219;SDS011;11279;48.364;10.904;2024-01-07T01:16:37;23.83;;;15.30;;
22219;SDS011;11279;48.364;10.904;2024-01-07T01:17:37;24.30;;;15.83;;
22219;SDS011;11279;48.364;10.904;2024-01-07T01:18:38;25.80;;;15.53;;
22219;SDS011;11279;48.364;10.904;2024-01-07T01:19:38;24.17;;;15.77;;
22219;SDS011;11279;48.364;10.904;2024-01-07T01:20:38;26.73;;;15.93;;
22219;SDS011;11279;48.364;10.904;2024-01-07T01:21:39;25.83;;;15.50;;
22219;SDS011;11279;48.364;10.904;2024-01-07T01:22:39;24.93;;;16.07;;
22219;SDS011;11279;48.364;10.904;2024-01-07T01:23:40;28.17;;;16.47;;
22219;SDS011;11279;48.364;10.904;2024-01-07T01:24:40;28.27;;;17.03;;
22219;SDS011;11279;48.364;10.904;2024-01-07T01:25:41;28.53;;;16.20;;
22219;SDS011;11279;48.364;10.904;2024-01-07T01:26:41;25.53;;;16.07;;
22219;SDS011;11279;48.364;10.904;2024-01-07T01:27:42;25.67;;;16.70;;
22219;SDS011;11279;48.364;10.904;2024-01-07T01:28:42;26.23;;;17.33;;
22219;SDS011;11279;48.364;10.904;2024-01-07T01:29:42;25.17;;;16.80;;
22219;SDS011;11279;48.364;10.904;2024-01-07T01:30:43;26.60;;;16.30;;
22219;SDS011;11279;48.364;10.904;2024-01-07T01:31:43;26.27;;;15.97;;
22219;SDS011;11279;48.364;10.904;2024-01-07T01:32:44;24.53;;;15.53;;
22219;SDS011;11279;48.364;10.904;2024-01-07T01:33:44;25.30;;;16.03;;
22219;SDS011;11279;48.364;10.904;2024-01-07T01:34:45;22.37;;;15.27;;
22219;SDS011;11279;48.364;10.904;2024-01-07T01:35:45;23.57;;;14.97;;
22219;SDS011;11279;48.364;10.904;2024-01-07T01:36:45;23.50;;;14.77;;
22219;SDS011;11279;48.364;10.904;2024-01-07T01:37:46;22.43;;;14.43;;
22219;SDS011;11279;48.364;10.904;2024-01-07T01:38:46;23.40;;;15.20;;
22219;SDS011;11279;48.364;10.904;2024-01-07T01:39:48;24.83;;;14.65;;
22219;SDS011;11279;48.364;10.904;2024-01-07T01:40:52;24.53;;;15.57;;
22219;SDS011;11279;48.364;10.904;2024-01-07T01:41:53;24.10;;;14.80;;
22219;SDS011;11279;48.364;10.904;2024-01-07T01:42:53;22.20;;;15.03;;
22219;SDS011;11279;48.364;10.904;2024-01-07T01:43:57;23.50;;;14.67;;
22219;SDS011;11279;48.364;10.904;2024-01-07T01:44:58;24.52;;;15.57;;
22219;SDS011;11279;48.364;10.904;2024-01-07T01:46:01;26.00;;;15.75;;
22219;SDS011;11279;48.364;10.904;2024-01-07T01:47:02;21.98;;;13.20;;
22219;SDS011;11279;48.364;10.904;2024-01-07T01:48:03;21.87;;;13.60;;
22219;SDS011;11279;48.364;10.904;2024-01-07T01:49:04;21.53;;;14.73;;
22219;SDS011;11279;48.364;10.904;2024-01-07T01:50:04;23.60;;;14.60;;
22219;SDS011;11279;48.364;10.904;2024-01-07T01:51:05;24.40;;;14.60;;
22219;SDS011;11279;48.364;10.904;2024-01-07T01:52:06;22.60;;;14.63;;
22219;SDS011;11279;48.364;10.904;2024-01-07T01:53:06;24.63;;;14.87;;
22219;SDS011;11279;48.364;10.904;2024-01-07T01:54:07;21.20;;;13.87;;
22219;SDS011;11279;48.364;10.904;2024-01-07T01:55:07;19.20;;;13.33;;
22219;SDS011;11279;48.364;10.904;2024-01-07T01:56:08;21.70;;;14.00;;
22219;SDS011;11279;48.364;10.904;2024-01-07T01:57:09;21.83;;;14.10;;
22219;SDS011;11279;48.364;10.904;2024-01-07T01:58:14;25.70;;;15.90;;
22219;SDS011;11279;48.364;10.904;2024-01-07T01:59:15;22.67;;;14.95;;
22219;SDS011;11279;48.364;10.904;2024-01-07T02:00:16;22.73;;;14.57;;
22219;SDS011;11279;48.364;10.904;2024-01-07T02:01:17;22.80;;;14.90;;
22219;SDS011;11279;48.364;10.904;2024-01-07T02:02:17;19.90;;;12.77;;
22219;SDS011;11279;48.364;10.904;2024-01-07T02:03:18;24.50;;;15.57;;
22219;SDS011;11279;48.364;10.904;2024-01-07T02:04:19;25.73;;;15.70;;
22219;SDS011;11279;48.364;10.904;2024-01-07T02:05:19;24.60;;;15.87;;
22219;SDS011;11279;48.364;10.904;2024-01-07T02:06:21;22.50;;;14.67;;
22219;SDS011;11279;48.364;10.904;2024-01-07T02:07:22;22.27;;;14.32;;
22219;SDS011;11279;48.364;10.904;2024-01-07T02:08:24;27.50;;;15.18;;
22219;SDS011;11279;48.364;10.904;2024-01-07T02:09:25;22.60;;;15.03;;
22219;SDS011;11279;48.364;10.904;2024-01-07T02:10:25;23.00;;;15.57;;
22219;SDS011;11279;48.364;10.904;2024-01-07T02:11:26;22.77;;;15.03;;
22219;SDS011;11279;48.364;10.904;2024-01-07T02:12:26;24.50;;;15.10;;
22219;SDS011;11279;48.364;10.904;2024-01-07T02:13:26;23.77;;;14.87;;
22219;SDS011;11279;48.364;10.904;2024-01-07T02:14:27;24.03;;;15.30;;
22219;SDS011;11279;48.364;10.904;2024-01-07T02:15:27;24.67;;;15.73;;
22219;SDS011;11279;48.364;10.904;2024-01-07T02:16:28;24.97;;;15.47;;
22219;SDS011;11279;48.364;10.904;2024-01-07T02:17:28;31.10;;;18.13;;
22219;SDS011;11279;48.364;10.904;2024-01-07T02:18:29;27.43;;;15.80;;
22219;SDS011;11279;48.364;10.904;2024-01-07T02:19:29;25.47;;;16.33;;
22219;SDS011;11279;48.364;10.904;2024-01-07T02:20:30;23.93;;;15.73;;
22219;SDS011;11279;48.364;10.904;2024-01-07T02:21:30;21.90;;;14.33;;
22219;SDS011;11279;48.364;10.904;2024-01-07T02:22:30;22.57;;;13.70;;
22219;SDS011;11279;48.364;10.904;2024-01-07T02:23:31;24.93;;;15.20;;
22219;SDS011;11279;48.364;10.904;2024-01-07T02:24:31;26.00;;;14.87;;
22219;SDS011;11279;48.364;10.904;2024-01-07T02:25:36;22.87;;;14.80;;
22219;SDS011;11279;48.364;10.904;2024-01-07T02:26:36;22.90;;;14.15;;
22219;SDS011;11279;48.364;10.904;2024-01-07T02:27:37;22.57;;;14.47;;
22219;SDS011;11279;48.364;10.904;2024-01-07T02:28:37;25.13;;;15.67;;
22219;SDS011;11279;48.364;10.904;2024-01-07T02:29:38;25.37;;;14.93;;
22219;SDS011;11279;48.364;10.904;2024-01-07T02:30:38;21.83;;;14.40;;
22219;SDS011;11279;48.364;10.904;2024-01-07T02:31:38;23.80;;;14.77;;
22219;SDS011;11279;48.364;10.904;2024-01-07T02:32:39;27.50;;;15.33;;
22219;SDS011;11279;48.364;10.904;2024-01-07T02:33:39;24.13;;;15.13;;
22219;SDS011;11279;48.364;10.904;2024-01-07T02:34:40;23.30;;;15.47;;
22219;SDS011;11279;48.364;10.904;2024-01-07T02:35:40;23.77;;;15.07;;
22219;SDS011;11279;48.364;10.904;2024-01-07T02:36:41;23.03;;;14.33;;
22219;SDS011;11279;48.364;10.904;2024-01-07T02:37:41;20.97;;;13.77;;
22219;SDS011;11279;48.364;10.904;2024-01-07T02:38:41;21.93;;;14.10;;
22219;SDS011;11279;48.364;10.904;2024-01-07T02:39:42;20.40;;;13.40;;
22219;SDS011;11279;48.364;10.904;2024-01-07T02:40:44;19.98;;;14.00;;
22219;SDS011;11279;48.364;10.904;2024-01-07T02:41:45;21.70;;;14.73;;
22219;SDS011;11279;48.364;10.904;2024-01-07T02:42:45;22.50;;;13.77;;
22219;SDS011;11279;48.364;10.904;2024-01-07T02:43:46;24.57;;;15.33;;
22219;SDS011;11279;48.364;10.904;2024-01-07T02:44:46;24.27;;;15.07;;
22219;SDS011;11279;48.364;10.904;2024-01-07T02:45:47;24.23;;;15.03;;
22219;SDS011;11279;48.364;10.904;2024-01-07T02:46:47;24.27;;;16.17;;
22219;SDS011;11279;48.364;10.904;2024-01-07T02:47:48;26.30;;;15.63;;
22219;SDS011;11279;48.364;10.904;2024-01-07T02:48:48;24.73;;;15.27;;
22219;SDS011;11279;48.364;10.904;2024-01-07T02:49:48;27.43;;;16.90;;
22219;SDS011;11279;48.364;10.904;2024-01-07T02:50:49;24.50;;;16.43;;
22219;SDS011;11279;48.364;10.904;2024-01-07T02:51:49;26.43;;;17.37;;
22219;SDS011;11279;48.364;10.904;2024-01-07T02:52:50;24.67;;;16.87;;
22219;SDS011;11279;48.364;10.904;2024-01-07T02:53:50;24.53;;;15.93;;
22219;SDS011;11279;48.364;10.904;2024-01-07T02:54:51;27.07;;;16.83;;
22219;SDS011;11279;48.364;10.904;2024-01-07T02:55:51;26.77;;;17.10;;
22219;SDS011;11279;48.364;10.904;2024-01-07T02:56:51;28.80;;;17.20;;
22219;SDS011;11279;48.364;10.904;2024-01-07T02:57:52;27.00;;;18.20;;
22219;SDS011;11279;48.364;10.904;2024-01-07T02:58:52;25.17;;;16.53;;
22219;SDS011;11279;48.364;10.904;2024-01-07T02:59:53;24.00;;;16.80;;
22219;SDS011;11279;48.364;10.904;2024-01-07T03:00:53;27.67;;;17.53;;
22219;SDS011;11279;48.364;10.904;2024-01-07T03:01:54;26.03;;;16.73;;
22219;SDS011;11279;48.364;10.904;2024-01-07T03:02:54;26.27;;;18.23;;
22219;SDS011;11279;48.364;10.904;2024-01-07T03:03:54;27.00;;;17.57;;
22219;SDS011;11279;48.364;10.904;2024-01-07T03:04:55;24.67;;;15.73;;
22219;SDS011;11279;48.364;10.904;2024-01-07T03:05:55;27.03;;;17.60;;
22219;SDS011;11279;48.364;10.904;2024-01-07T03:06:56;25.60;;;16.77;;
22219;SDS011;11279;48.364;10.904;2024-01-07T03:07:56;30.17;;;18.07;;
22219;SDS011;11279;48.364;10.904;2024-01-07T03:08:56;28.27;;;18.37;;
22219;SDS011;11279;48.364;10.904;2024-01-07T03:09:57;28.23;;;17.10;;
22219;SDS011;11279;48.364;10.904;2024-01-07T03:10:57;26.13;;;17.73;;
22219;SDS011;11279;48.364;10.904;2024-01-07T03:11:58;26.13;;;17.17;;
22219;SDS011;11279;48.364;10.904;2024-01-07T03:12:58;26.93;;;17.50;;
22219;SDS011;11279;48.364;10.904;2024-01-07T03:13:59;28.00;;;18.33;;
22219;SDS011;11279;48.364;10.904;2024-01-07T03:15:00;28.77;;;17.93;;
22219;SDS011;11279;48.364;10.904;2024-01-07T03:16:00;29.87;;;18.97;;
22219;SDS011;11279;48.364;10.904;2024-01-07T03:17:01;30.77;;;19.37;;
22219;SDS011;11279;48.364;10.904;2024-01-07T03:18:01;26.17;;;17.00;;
22219;SDS011;11279;48.364;10.904;2024-01-07T03:19:01;27.23;;;16.60;;
22219;SDS011;11279;48.364;10.904;2024-01-07T03:20:03;29.02;;;17.60;;
22219;SDS011;11279;48.364;10.904;2024-01-07T03:21:03;28.17;;;17.83;;
22219;SDS011;11279;48.364;10.904;2024-01-07T03:22:04;28.07;;;17.67;;
22219;SDS011;11279;48.364;10.904;2024-01-07T03:23:07;27.15;;;17.63;;
22219;SDS011;11279;48.364;10.904;2024-01-07T03:24:07;30.53;;;17.70;;
22219;SDS011;11279;48.364;10.904;2024-01-07T03:25:08;28.43;;;18.17;;
22219;SDS011;11279;48.364;10.904;2024-01-07T03:26:08;26.37;;;17.33;;
22219;SDS011;11279;48.364;10.904;2024-01-07T03:27:09;26.73;;;16.70;;
22219;SDS011;11279;48.364;10.904;2024-01-07T03:28:09;24.83;;;16.43;;
22219;SDS011;11279;48.364;10.904;2024-01-07T03:29:10;24.47;;;17.03;;
22219;SDS011;11279;48.364;10.904;2024-01-07T03:30:10;25.90;;;16.23;;
22219;SDS011;11279;48.364;10.904;2024-01-07T03:31:12;25.33;;;17.13;;
22219;SDS011;11279;48.364;10.904;2024-01-07T03:32:16;26.30;;;17.40;;
22219;SDS011;11279;48.364;10.904;2024-01-07T03:33:16;23.87;;;16.70;;
22219;SDS011;11279;48.364;10.904;2024-01-07T03:34:17;26.60;;;17.07;;
22219;SDS011;11279;48.364;10.904;2024-01-07T03:35:17;27.60;;;17.00;;
22219;SDS011;11279;48.364;10.904;2024-01-07T03:36:18;25.90;;;17.03;;
22219;SDS011;11279;48.364;10.904;2024-01-07T03:37:18;27.50;;;17.97;;
22219;SDS011;11279;48.364;10.904;2024-01-07T03:38:19;29.73;;;17.90;;
22219;SDS011;11279;48.364;10.904;2024-01-07T03:39:19;24.43;;;16.60;;
22219;SDS011;11279;48.364;10.904;2024-01-07T03:40:19;26.33;;;16.77;;
22219;SDS011;11279;48.364;10.904;2024-01-07T03:41:20;23.67;;;15.40;;
22219;SDS011;11279;48.364;10.904;2024-01-07T03:42:21;28.00;;;17.73;;
22219;SDS011;11279;48.364;10.904;2024-01-07T03:43:21;26.40;;;16.90;;
22219;SDS011;11279;48.364;10.904;2024-01-07T03:44:22;25.87;;;16.97;;
22219;SDS011;11279;48.364;10.904;2024-01-07T03:45:22;26.23;;;16.07;;
22219;SDS011;11279;48.364;10.904;2024-01-07T03:46:23;24.33;;;16.27;;
22219;SDS011;11279;48.364;10.904;2024-01-07T03:47:23;25.23;;;16.10;;
22219;SDS011;11279;48.364;10.904;2024-01-07T03:48:24;25.87;;;16.40;;
22219;SDS011;11279;48.364;10.904;2024-01-07T03:49:24;23.53;;;15.87;;
22219;SDS011;11279;48.364;10.904;2024-01-07T03:50:25;27.37;;;17.00;;
22219;SDS011;11279;48.364;10.904;2024-01-07T03:51:25;26.67;;;15.77;;
22219;SDS011;11279;48.364;10.904;2024-01-07T03:52:26;25.77;;;16.80;;
22219;SDS011;11279;48.364;10.904;2024-01-07T03:53:26;27.03;;;16.70;;
22219;SDS011;11279;48.364;10.904;2024-01-07T03:54:27;25.87;;;16.93;;
22219;SDS011;11279;48.364;10.904;2024-01-07T03:55:27;26.47;;;16.97;;
22219;SDS011;11279;48.364;10.904;2024-01-07T03:56:27;24.73;;;15.73;;
22219;SDS011;11279;48.364;10.904;2024-01-07T03:57:28;27.30;;;16.57;;
22219;SDS011;11279;48.364;10.904;2024-01-07T03:58:28;25.83;;;16.37;;
22219;SDS011;11279;48.364;10.904;2024-01-07T03:59:29;27.50;;;17.47;;
22219;SDS011;11279;48.364;10.904;2024-01-07T04:00:29;24.40;;;16.20;;
22219;SDS011;11279;48.364;10.904;2024-01-07T04:01:29;25.47;;;16.80;;
22219;SDS011;11279;48.364;10.904;2024-01-07T04:02:30;27.07;;;16.07;;
22219;SDS011;11279;48.364;10.904;2024-01-07T04:03:30;25.47;;;16.43;;
22219;SDS011;11279;48.364;10.904;2024-01-07T04:04:31;25.93;;;16.83;;
22219;SDS011;11279;48.364;10.904;2024-01-07T04:05:31;29.17;;;17.73;;
22219;SDS011;11279;48.364;10.904;2024-01-07T04:06:33;30.98;;;18.35;;
22219;SDS011;11279;48.364;10.904;2024-01-07T04:07:34;28.20;;;17.27;;
22219;SDS011;11279;48.364;10.904;2024-01-07T04:08:34;27.33;;;16.60;;
22219;SDS011;11279;48.364;10.904;2024-01-07T04:09:35;24.52;;;15.80;;
22219;SDS011;11279;48.364;10.904;2024-01-07T04:10:36;29.77;;;17.80;;
22219;SDS011;11279;48.364;10.904;2024-01-07T04:11:39;23.92;;;16.90;;
22219;SDS011;11279;48.364;10.904;2024-01-07T04:12:41;24.90;;;16.52;;
22219;SDS011;11279;48.364;10.904;2024-01-07T04:13:41;28.60;;;18.97;;
22219;SDS011;11279;48.364;10.904;2024-01-07T04:14:42;27.83;;;18.40;;
22219;SDS011;11279;48.364;10.904;2024-01-07T04:15:43;26.02;;;16.92;;
22219;SDS011;11279;48.364;10.904;2024-01-07T04:16:43;29.87;;;17.83;;
22219;SDS011;11279;48.364;10.904;2024-01-07T04:17:44;27.87;;;18.20;;
22219;SDS011;11279;48.364;10.904;2024-01-07T04:18:45;26.50;;;17.07;;
22219;SDS011;11279;48.364;10.904;2024-01-07T04:19:46;30.90;;;17.88;;
22219;SDS011;11279;48.364;10.904;2024-01-07T04:20:46;29.40;;;17.93;;
22219;SDS011;11279;48.364;10.904;2024-01-07T04:21:47;30.47;;;17.53;;
22219;SDS011;11279;48.364;10.904;2024-01-07T04:22:47;28.40;;;18.37;;
22219;SDS011;11279;48.364;10.904;2024-01-07T04:23:47;32.70;;;18.90;;
22219;SDS011;11279;48.364;10.904;2024-01-07T04:24:48;26.47;;;17.90;;
22219;SDS011;11279;48.364;10.904;2024-01-07T04:25:48;25.57;;;17.50;;
22219;SDS011;11279;48.364;10.904;2024-01-07T04:26:49;26.20;;;17.40;;
22219;SDS011;11279;48.364;10.904;2024-01-07T04:27:49;29.33;;;17.60;;
22219;SDS011;11279;48.364;10.904;2024-01-07T04:28:50;30.80;;;18.87;;
22219;SDS011;11279;48.364;10.904;2024-01-07T04:29:50;31.77;;;19.47;;
22219;SDS011;11279;48.364;10.904;2024-01-07T04:30:51;34.70;;;20.67;;
22219;SDS011;11279;48.364;10.904;2024-01-07T04:31:51;29.00;;;18.23;;
22219;SDS011;11279;48.364;10.904;2024-01-07T04:32:52;30.17;;;19.30;;
22219;SDS011;11279;48.364;10.904;2024-01-07T04:33:52;28.67;;;17.47;;
22219;SDS011;11279;48.364;10.904;2024-01-07T04:34:52;29.83;;;18.97;;
22219;SDS011;11279;48.364;10.904;2024-01-07T04:35:53;29.97;;;19.10;;
22219;SDS011;11279;48.364;10.904;2024-01-07T04:36:58;28.00;;;18.42;;
22219;SDS011;11279;48.364;10.904;2024-01-07T04:37:58;29.80;;;18.50;;
22219;SDS011;11279;48.364;10.904;2024-01-07T04:38:58;31.23;;;19.67;;
22219;SDS011;11279;48.364;10.904;2024-01-07T04:39:59;31.63;;;19.40;;
22219;SDS011;11279;48.364;10.904;2024-01-07T04:41:00;29.85;;;19.00;;
22219;SDS011;11279;48.364;10.904;2024-01-07T04:42:01;32.20;;;20.03;;
22219;SDS011;11279;48.364;10.904;2024-01-07T04:43:01;28.07;;;18.43;;
22219;SDS011;11279;48.364;10.904;2024-01-07T04:44:02;30.80;;;20.83;;
22219;SDS011;11279;48.364;10.904;2024-01-07T04:45:03;30.10;;;18.07;;
22219;SDS011;11279;48.364;10.904;2024-01-07T04:46:04;29.77;;;18.73;;
22219;SDS011;11279;48.364;10.904;2024-01-07T04:47:05;30.63;;;19.67;;
22219;SDS011;11279;48.364;10.904;2024-01-07T04:48:25;32.78;;;19.20;;
22219;SDS011;11279;48.364;10.904;2024-01-07T04:49:26;31.67;;;18.93;;
22219;SDS011;11279;48.364;10.904;2024-01-07T04:50:26;29.90;;;19.47;;
22219;SDS011;11279;48.364;10.904;2024-01-07T04:51:27;29.90;;;19.27;;
22219;SDS011;11279;48.364;10.904;2024-01-07T04:52:27;26.97;;;18.20;;
22219;SDS011;11279;48.364;10.904;2024-01-07T04:53:27;30.57;;;19.27;;
22219;SDS011;11279;48.364;10.904;2024-01-07T04:54:28;31.20;;;18.77;;
22219;SDS011;11279;48.364;10.904;2024-01-07T04:55:29;32.67;;;19.73;;
22219;SDS011;11279;48.364;10.904;2024-01-07T04:56:30;31.95;;;19.20;;
22219;SDS011;11279;48.364;10.904;2024-01-07T04:57:30;30.27;;;19.07;;
22219;SDS011;11279;48.364;10.904;2024-01-07T04:58:31;29.57;;;20.17;;
22219;SDS011;11279;48.364;10.904;2024-01-07T04:59:31;32.27;;;19.30;;
22219;SDS011;11279;48.364;10.904;2024-01-07T05:00:31;29.33;;;18.73;;
22219;SDS011;11279;48.364;10.904;2024-01-07T05:01:32;32.70;;;19.87;;
22219;SDS011;11279;48.364;10.904;2024-01-07T05:02:33;32.05;;;20.33;;
22219;SDS011;11279;48.364;10.904;2024-01-07T05:03:34;31.73;;;19.30;;
22219;SDS011;11279;48.364;10.904;2024-01-07T05:04:35;31.70;;;20.15;;
22219;SDS011;11279;48.364;10.904;2024-01-07T05:05:36;28.07;;;18.13;;
22219;SDS011;11279;48.364;10.904;2024-01-07T05:06:36;31.63;;;19.17;;
22219;SDS011;11279;48.364;10.904;2024-01-07T05:07:37;32.73;;;20.53;;
22219;SDS011;11279;48.364;10.904;2024-01-07T05:08:39;29.07;;;19.40;;
22219;SDS011;11279;48.364;10.904;2024-01-07T05:09:40;33.17;;;21.73;;
22219;SDS011;11279;48.364;10.904;2024-01-07T05:10:41;33.47;;;21.33;;
22219;SDS011;11279;48.364;10.904;2024-01-07T05:11:41;32.93;;;20.90;;
22219;SDS011;11279;48.364;10.904;2024-01-07T05:12:42;36.13;;;21.17;;
22219;SDS011;11279;48.364;10.904;2024-01-07T05:13:42;33.30;;;20.57;;
22219;SDS011;11279;48.364;10.904;2024-01-07T05:14:43;34.93;;;20.60;;
22219;SDS011;11279;48.364;10.904;2024-01-07T05:15:43;32.57;;;19.83;;
22219;SDS011;11279;48.364;10.904;2024-01-07T05:16:45;31.98;;;19.80;;
22219;SDS011;11279;48.364;10.904;2024-01-07T05:17:45;32.33;;;19.60;;
22219;SDS011;11279;48.364;10.904;2024-01-07T05:18:46;31.13;;;20.93;;
22219;SDS011;11279;48.364;10.904;2024-01-07T05:19:48;31.23;;;20.67;;
22219;SDS011;11279;48.364;10.904;2024-01-07T05:20:49;33.87;;;20.20;;
22219;SDS011;11279;48.364;10.904;2024-01-07T05:21:50;31.90;;;21.70;;
22219;SDS011;11279;48.364;10.904;2024-01-07T05:22:50;33.33;;;21.03;;
22219;SDS011;11279;48.364;10.904;2024-01-07T05:23:51;32.67;;;20.30;;
22219;SDS011;11279;48.364;10.904;2024-01-07T05:24:51;33.67;;;21.60;;
22219;SDS011;11279;48.364;10.904;2024-01-07T05:25:51;32.00;;;20.87;;
22219;SDS011;11279;48.364;10.904;2024-01-07T05:26:52;33.30;;;20.77;;
22219;SDS011;11279;48.364;10.904;2024-01-07T05:27:53;34.60;;;21.80;;
22219;SDS011;11279;48.364;10.904;2024-01-07T05:28:53;33.63;;;21.50;;
22219;SDS011;11279;48.364;10.904;2024-01-07T05:29:54;35.60;;;21.87;;
22219;SDS011;11279;48.364;10.904;2024-01-07T05:30:55;34.10;;;21.00;;
22219;SDS011;11279;48.364;10.904;2024-01-07T05:31:56;34.93;;;21.87;;
22219;SDS011;11279;48.364;10.904;2024-01-07T05:32:56;37.40;;;21.17;;
22219;SDS011;11279;48.364;10.904;2024-01-07T05:33:56;38.67;;;22.40;;
22219;SDS011;11279;48.364;10.904;2024-01-07T05:34:57;34.17;;;21.73;;
22219;SDS011;11279;48.364;10.904;2024-01-07T05:35:57;33.60;;;20.83;;
22219;SDS011;11279;48.364;10.904;2024-01-07T05:36:58;37.30;;;23.00;;
22219;SDS011;11279;48.364;10.904;2024-01-07T05:37:58;34.77;;;21.70;;
22219;SDS011;11279;48.364;10.904;2024-01-07T05:38:59;34.33;;;21.53;;
22219;SDS011;11279;48.364;10.904;2024-01-07T05:39:59;33.43;;;22.00;;
22219;SDS011;11279;48.364;10.904;2024-01-07T05:41:00;36.30;;;21.83;;
22219;SDS011;11279;48.364;10.904;2024-01-07T05:42:00;33.00;;;20.97;;
22219;SDS011;11279;48.364;10.904;2024-01-07T05:43:00;32.93;;;20.97;;
22219;SDS011;11279;48.364;10.904;2024-01-07T05:44:01;34.03;;;21.20;;
22219;SDS011;11279;48.364;10.904;2024-01-07T05:45:01;33.47;;;20.73;;
22219;SDS011;11279;48.364;10.904;2024-01-07T05:46:02;32.97;;;20.52;;
22219;SDS011;11279;48.364;10.904;2024-01-07T05:47:03;33.87;;;22.03;;
22219;SDS011;11279;48.364;10.904;2024-01-07T05:48:04;33.70;;;20.57;;
22219;SDS011;11279;48.364;10.904;2024-01-07T05:49:05;35.53;;;22.47;;
22219;SDS011;11279;48.364;10.904;2024-01-07T05:50:05;31.03;;;20.23;;